TimePST,TemperatureF,Dew PointF,Humidity,Sea Level PressureIn,VisibilityMPH,Wind Direction,Wind SpeedMPH,Gust SpeedMPH,PrecipitationIn,Events,Conditions,WindDirDegrees,DateUTC
12:53 AM,10.9,3.9,73,30.44,10.0,South,16.1,-,N/A,,Clear,170,2013-01-22 08:53:00
1:53 AM,10.9,3.0,70,30.43,10.0,South,13.8,-,N/A,,Clear,180,2013-01-22 09:53:00
2:53 AM,10.0,3.0,73,30.42,10.0,South,13.8,-,N/A,,Clear,170,2013-01-22 10:53:00
3:53 AM,9.0,1.9,73,30.42,10.0,South,13.8,-,N/A,,Clear,170,2013-01-22 11:53:00
4:53 AM,9.0,1.9,73,30.51,10.0,South,13.8,-,N/A,,Clear,170,2013-01-22 12:53:00
5:53 AM,9.0,1.9,73,30.52,10.0,South,13.8,-,N/A,,Clear,180,2013-01-22 13:53:00
6:53 AM,7.0,-0.0,73,30.51,10.0,South,15.0,-,N/A,,Clear,180,2013-01-22 14:53:00
7:53 AM,10.0,1.9,70,30.52,10.0,South,12.7,-,N/A,,Clear,180,2013-01-22 15:53:00
8:53 AM,19.9,7.0,57,30.47,10.0,South,11.5,-,N/A,,Clear,170,2013-01-22 16:53:00
9:53 AM,30.0,12.9,49,30.44,10.0,SSE,9.2,-,N/A,,Clear,150,2013-01-22 17:53:00
10:53 AM,36.0,16.0,44,30.42,10.0,South,6.9,-,N/A,,Clear,180,2013-01-22 18:53:00
11:53 AM,44.1,14.0,30,30.35,10.0,SSE,4.6,-,N/A,,Clear,150,2013-01-22 19:53:00
12:53 PM,46.9,14.0,27,30.29,10.0,Calm,Calm,-,N/A,,Clear,0,2013-01-22 20:53:00
1:53 PM,51.1,12.9,22,30.26,10.0,Calm,Calm,-,N/A,,Clear,0,2013-01-22 21:53:00
2:53 PM,48.9,18.0,29,30.27,10.0,East,3.5,-,N/A,,Clear,90,2013-01-22 22:53:00
3:53 PM,46.9,16.0,29,30.28,10.0,SSW,6.9,-,N/A,,Clear,200,2013-01-22 23:53:00
4:53 PM,34.0,19.9,56,30.35,10.0,SSE,4.6,-,N/A,,Clear,150,2013-01-23 00:53:00
5:53 PM,32.0,16.0,52,30.38,10.0,SW,10.4,-,N/A,,Clear,220,2013-01-23 01:53:00
6:53 PM,30.0,15.1,54,30.41,10.0,SSW,6.9,-,N/A,,Clear,200,2013-01-23 02:53:00
7:53 PM,26.1,14.0,60,30.41,10.0,South,11.5,-,N/A,,Clear,180,2013-01-23 03:53:00
8:53 PM,24.1,12.9,62,30.37,10.0,South,11.5,-,N/A,,Clear,170,2013-01-23 04:53:00
9:53 PM,23.0,12.9,65,30.34,10.0,SSE,9.2,-,N/A,,Clear,150,2013-01-23 05:53:00
10:53 PM,21.0,10.9,65,30.30,10.0,South,16.1,-,N/A,,Clear,170,2013-01-23 06:53:00
11:53 PM,21.0,10.9,65,30.28,10.0,South,11.5,-,N/A,,Clear,170,2013-01-23 07:53:00